createdAt,value
2023-05-24T00:01:25.961Z,9.68
2023-05-24T00:03:27.026Z,9.95
2023-05-24T00:04:53.113Z,11.00
2023-05-24T00:06:17.235Z,10.02
2023-05-24T00:07:38.757Z,11.73
2023-05-24T00:09:14.581Z,12.00
2023-05-24T00:10:36.846Z,13.07
2023-05-24T00:11:58.387Z,12.88
2023-05-24T00:13:25.190Z,13.35
2023-05-24T00:14:46.699Z,13.05
2023-05-24T00:16:11.840Z,13.40
2023-05-24T00:17:34.858Z,11.27
2023-05-24T00:18:59.345Z,11.68
2023-05-24T00:20:21.904Z,11.82
2023-05-24T00:21:43.208Z,8.07
2023-05-24T00:23:08.103Z,7.40
2023-05-24T00:24:29.358Z,6.72
2023-05-24T00:28:50.382Z,4.82
2023-05-24T00:30:23.566Z,5.13
2023-05-24T00:35:09.827Z,3.25
2023-05-24T00:36:35.420Z,3.45
2023-05-24T00:38:18.760Z,3.28
2023-05-24T00:39:42.075Z,3.22
2023-05-24T00:41:10.176Z,3.22
2023-05-24T00:42:31.505Z,3.35
2023-05-24T00:44:00.847Z,2.80
2023-05-24T00:45:24.278Z,3.00
2023-05-24T00:46:50.991Z,2.70
2023-05-24T00:48:12.767Z,2.90
2023-05-24T00:49:38.482Z,2.60
2023-05-24T00:51:00.087Z,2.38
2023-05-24T00:52:23.010Z,2.60
2023-05-24T00:53:46.376Z,2.10
2023-05-24T00:55:09.758Z,2.30
2023-05-24T00:56:34.238Z,1.80
2023-05-24T00:57:59.938Z,1.73
2023-05-24T00:59:24.611Z,1.75
2023-05-24T01:00:49.984Z,2.15
2023-05-24T01:02:12.452Z,1.73
2023-05-24T01:03:35.860Z,1.83
2023-05-24T01:05:00.219Z,1.92
2023-05-24T01:06:25.214Z,1.85
2023-05-24T01:07:58.658Z,1.80
2023-05-24T01:09:31.489Z,1.55
2023-05-24T01:10:59.220Z,1.90
2023-05-24T01:12:47.070Z,2.00
2023-05-24T01:14:20.092Z,1.88
2023-05-24T01:15:53.574Z,2.38
2023-05-24T01:17:21.604Z,2.10
2023-05-24T01:18:51.416Z,1.80
2023-05-24T01:20:17.345Z,1.95
2023-05-24T01:21:56.353Z,2.13
2023-05-24T01:23:42.948Z,1.95
2023-05-24T01:25:07.775Z,2.22
2023-05-24T01:26:41.490Z,1.90
2023-05-24T01:28:09.712Z,2.08
2023-05-24T01:29:35.938Z,1.95
2023-05-24T01:30:57.337Z,1.95
2023-05-24T01:33:43.051Z,2.28
2023-05-24T01:35:06.088Z,1.98
2023-05-24T01:36:28.239Z,2.22
2023-05-24T01:37:49.479Z,3.05
2023-05-24T01:39:12.023Z,2.42
2023-05-24T01:40:34.051Z,2.10
2023-05-24T01:42:06.789Z,2.60
2023-05-24T01:43:34.645Z,2.55
2023-05-24T01:45:04.806Z,2.30
2023-05-24T01:46:36.703Z,2.00
2023-05-24T01:49:31.706Z,2.70
2023-05-24T01:51:00.516Z,2.20
2023-05-24T01:52:28.865Z,2.20
2023-05-24T01:53:52.715Z,2.50
2023-05-24T01:55:18.863Z,2.00
2023-05-24T01:56:44.977Z,2.05
2023-05-24T01:58:09.466Z,2.15
2023-05-24T01:59:34.821Z,2.60
2023-05-24T02:00:56.657Z,2.90
2023-05-24T02:02:20.506Z,2.78
2023-05-24T02:03:52.330Z,3.17
2023-05-24T02:05:18.588Z,3.70
2023-05-24T02:19:17.351Z,3.75
2023-05-24T02:20:40.060Z,4.30
2023-05-24T02:22:01.702Z,3.90
2023-05-24T02:23:25.645Z,4.28
2023-05-24T02:24:54.068Z,3.20
2023-05-24T02:26:17.896Z,3.35
2023-05-24T02:27:39.285Z,3.90
2023-05-24T02:29:01.551Z,3.53
2023-05-24T02:30:22.770Z,3.90
2023-05-24T02:31:45.271Z,3.63
2023-05-24T02:38:46.000Z,3.45
2023-05-24T02:40:08.937Z,3.78
2023-05-24T02:41:31.570Z,2.80
2023-05-24T02:42:53.896Z,3.10
2023-05-24T02:44:15.308Z,3.42
2023-05-24T02:45:37.956Z,3.40
2023-05-24T02:46:59.284Z,3.33
2023-05-24T02:48:21.887Z,3.42
2023-05-24T02:49:43.431Z,3.10
2023-05-24T02:51:06.202Z,3.45
2023-05-24T02:52:27.363Z,2.95
2023-05-24T02:53:51.411Z,2.95
2023-05-24T02:55:14.408Z,3.08
2023-05-24T02:56:37.735Z,3.10
2023-05-24T02:57:59.400Z,2.83
2023-05-24T02:59:21.790Z,3.25
2023-05-24T03:00:43.998Z,2.55
2023-05-24T03:02:06.947Z,3.25
2023-05-24T03:03:30.953Z,2.97
2023-05-24T03:04:53.281Z,2.78
2023-05-24T03:06:16.105Z,2.88
2023-05-24T03:07:37.616Z,3.22
2023-05-24T03:09:02.826Z,3.22
2023-05-24T03:10:24.438Z,3.05
2023-05-24T03:11:46.982Z,2.70
2023-05-24T03:13:09.686Z,3.08
2023-05-24T03:14:33.271Z,3.00
2023-05-24T03:15:55.297Z,3.60
2023-05-24T03:17:20.017Z,3.38
2023-05-24T03:18:41.657Z,3.17
2023-05-24T03:20:05.973Z,3.55
2023-05-24T03:21:27.918Z,2.80
2023-05-24T03:22:52.567Z,3.28
2023-05-24T03:24:15.391Z,3.20
2023-05-24T03:25:37.718Z,3.50
2023-05-24T03:26:59.923Z,3.25
2023-05-24T03:28:22.526Z,3.13
2023-05-24T03:29:45.209Z,3.20
2023-05-24T03:31:07.459Z,3.15
2023-05-24T03:32:30.130Z,3.30
2023-05-24T03:33:51.654Z,3.10
2023-05-24T03:35:14.086Z,3.20
2023-05-24T03:36:36.730Z,3.00
2023-05-24T03:37:59.083Z,2.97
2023-05-24T03:39:23.924Z,2.88
2023-05-24T03:40:53.229Z,2.55
2023-05-24T03:42:15.571Z,2.97
2023-05-24T03:43:38.692Z,2.85
2023-05-24T03:45:10.992Z,2.92
2023-05-24T03:46:34.079Z,2.70
2023-05-24T03:47:56.580Z,2.55
2023-05-24T03:49:18.790Z,2.50
2023-05-24T03:50:41.022Z,2.30
2023-05-24T03:53:24.873Z,2.38
2023-05-24T03:54:49.503Z,2.50
2023-05-24T03:56:11.418Z,2.30
2023-05-24T03:57:32.444Z,2.30
2023-05-24T03:58:54.726Z,2.58
2023-05-24T04:00:16.576Z,2.72
2023-05-24T04:01:43.389Z,2.50
2023-05-24T04:03:06.941Z,2.40
2023-05-24T04:04:29.881Z,2.28
2023-05-24T04:05:52.834Z,2.60
2023-05-24T04:07:16.534Z,2.95
2023-05-24T04:09:29.239Z,2.10
2023-05-24T04:13:32.257Z,2.40
2023-05-24T04:14:55.430Z,2.35
2023-05-24T04:16:16.798Z,2.40
2023-05-24T04:17:39.734Z,2.33
2023-05-24T04:19:05.985Z,2.55
2023-05-24T04:20:29.602Z,2.22
2023-05-24T04:21:56.007Z,2.65
2023-05-24T04:23:17.573Z,2.58
2023-05-24T04:24:42.259Z,2.83
2023-05-24T04:26:07.707Z,2.90
2023-05-24T04:27:30.353Z,2.45
2023-05-24T04:28:52.923Z,3.22
2023-05-24T04:30:14.400Z,2.65
2023-05-24T04:33:00.253Z,2.78
2023-05-24T04:34:24.028Z,3.00
2023-05-24T04:37:08.977Z,3.05
2023-05-24T04:38:32.527Z,2.45
2023-05-24T04:39:55.194Z,2.85
2023-05-24T04:41:21.718Z,2.95
2023-05-24T04:42:43.777Z,3.13
2023-05-24T04:44:06.396Z,3.00
2023-05-24T04:45:28.205Z,3.05
2023-05-24T04:46:50.815Z,3.15
2023-05-24T04:48:15.988Z,3.25
2023-05-24T04:49:37.967Z,3.15
2023-05-24T04:51:00.655Z,3.33
2023-05-24T04:52:23.050Z,3.10
2023-05-24T04:53:45.209Z,3.60
2023-05-24T04:55:07.078Z,3.22
2023-05-24T04:56:53.203Z,3.15
2023-05-24T04:57:57.304Z,3.33
2023-05-24T04:59:18.922Z,3.50
2023-05-24T05:00:41.244Z,3.00
2023-05-24T05:02:17.574Z,3.65
2023-05-24T05:03:41.229Z,3.17
2023-05-24T05:05:03.719Z,3.47
2023-05-24T05:06:27.129Z,3.10
2023-05-24T05:07:52.173Z,4.00
2023-05-24T05:09:14.977Z,4.20
2023-05-24T05:10:44.855Z,4.40
2023-05-24T05:12:25.440Z,4.60
2023-05-24T05:13:48.439Z,5.60
2023-05-24T05:15:11.521Z,5.13
2023-05-24T05:16:33.096Z,5.40
2023-05-24T05:17:57.524Z,4.82
2023-05-24T05:19:19.901Z,5.85
2023-05-24T05:20:53.849Z,6.60
2023-05-24T05:22:31.277Z,7.25
2023-05-24T05:24:33.427Z,9.82
2023-05-24T05:25:56.678Z,8.10
2023-05-24T05:27:20.669Z,7.97
2023-05-24T05:28:42.847Z,7.25
2023-05-24T05:30:05.289Z,7.50
2023-05-24T05:31:31.089Z,7.20
2023-05-24T05:32:57.310Z,5.45
2023-05-24T05:34:21.360Z,5.15
2023-05-24T05:35:43.465Z,4.10
2023-05-24T05:37:05.989Z,4.45
2023-05-24T05:38:28.142Z,4.25
2023-05-24T05:39:50.321Z,4.80
2023-05-24T05:41:16.528Z,4.97
2023-05-24T05:42:40.965Z,4.45
2023-05-24T05:44:03.710Z,4.47
2023-05-24T05:45:26.914Z,5.05
2023-05-24T05:46:50.026Z,4.15
2023-05-24T05:48:13.161Z,5.97
2023-05-24T05:49:37.670Z,6.18
2023-05-24T05:51:00.656Z,7.10
2023-05-24T05:52:24.167Z,7.05
2023-05-24T05:53:48.266Z,5.95
2023-05-24T05:55:14.910Z,6.70
2023-05-24T05:56:45.354Z,6.22
2023-05-24T05:58:10.636Z,6.07
2023-05-24T05:59:39.126Z,5.10
2023-05-24T06:01:02.520Z,5.63
2023-05-24T06:02:28.805Z,4.78
2023-05-24T06:03:52.402Z,4.85
2023-05-24T06:05:16.081Z,4.20
2023-05-24T06:06:38.590Z,5.07
2023-05-24T06:08:00.876Z,5.40
2023-05-24T06:09:23.453Z,4.53
2023-05-24T06:10:45.945Z,4.57
2023-05-24T06:13:47.012Z,4.78
2023-05-24T06:15:10.591Z,4.65
2023-05-24T06:16:32.902Z,4.13
2023-05-24T06:17:55.570Z,4.03
2023-05-24T06:19:18.462Z,4.82
2023-05-24T06:20:41.133Z,5.43
2023-05-24T06:22:03.785Z,4.75
2023-05-24T06:23:25.866Z,5.32
2023-05-24T06:24:49.303Z,4.80
2023-05-24T06:26:14.391Z,4.57
2023-05-24T06:27:37.080Z,4.47
2023-05-24T06:29:00.620Z,4.63
2023-05-24T06:30:22.723Z,4.10
2023-05-24T06:31:45.088Z,4.38
2023-05-24T06:35:30.122Z,4.53
2023-05-24T06:36:53.155Z,5.20
2023-05-24T06:38:15.671Z,4.57
2023-05-24T06:39:40.903Z,4.78
2023-05-24T06:41:05.622Z,4.47
2023-05-24T06:42:28.691Z,4.28
2023-05-24T06:43:51.632Z,4.78
2023-05-24T06:45:16.725Z,4.60
2023-05-24T06:46:41.970Z,4.03
2023-05-24T06:48:04.727Z,4.32
2023-05-24T06:49:30.538Z,4.70
2023-05-24T06:51:02.614Z,4.15
2023-05-24T06:53:47.812Z,4.30
2023-05-24T06:55:11.040Z,4.85
2023-05-24T06:56:40.008Z,4.60
2023-05-24T06:58:05.433Z,4.03
2023-05-24T06:59:37.839Z,4.28
2023-05-24T07:01:30.723Z,4.45
2023-05-24T07:02:56.669Z,4.70
2023-05-24T07:04:41.376Z,4.20
2023-05-24T07:06:03.769Z,4.15
2023-05-24T07:07:25.760Z,4.28
2023-05-24T07:09:02.319Z,5.13
2023-05-24T07:10:24.545Z,4.40
2023-05-24T07:11:47.291Z,4.32
2023-05-24T07:13:13.656Z,3.92
2023-05-24T07:14:36.486Z,4.22
2023-05-24T07:15:58.847Z,4.00
2023-05-24T07:17:28.208Z,4.25
2023-05-24T07:18:50.838Z,4.75
2023-05-24T07:21:20.203Z,4.43
2023-05-24T07:22:43.344Z,5.25
2023-05-24T07:24:04.655Z,5.00
2023-05-24T07:25:27.832Z,4.88
2023-05-24T07:26:50.337Z,4.60
2023-05-24T07:28:14.387Z,4.60
2023-05-24T07:29:37.000Z,4.60
2023-05-24T07:31:00.735Z,4.90
2023-05-24T07:32:22.950Z,4.85
2023-05-24T07:33:47.047Z,5.03
2023-05-24T07:35:16.003Z,5.30
2023-05-24T07:36:43.916Z,4.63
2023-05-24T07:38:06.157Z,5.03
2023-05-24T07:39:29.820Z,4.68
2023-05-24T07:41:01.913Z,5.13
2023-05-24T07:42:32.495Z,5.25
2023-05-24T07:43:53.819Z,5.25
2023-05-24T07:45:34.696Z,5.55
2023-05-24T07:46:58.638Z,5.60
2023-05-24T07:48:21.159Z,5.13
2023-05-24T07:49:44.572Z,5.40
2023-05-24T07:51:06.910Z,5.40
2023-05-24T07:52:29.911Z,5.38
2023-05-24T07:53:52.099Z,5.47
2023-05-24T07:55:17.562Z,5.82
2023-05-24T07:56:44.645Z,5.03
2023-05-24T07:58:06.642Z,6.35
2023-05-24T07:59:29.642Z,5.80
2023-05-24T08:00:52.617Z,5.80
2023-05-24T08:02:15.882Z,4.40
2023-05-24T08:03:38.434Z,5.80
2023-05-24T08:05:03.993Z,4.80
2023-05-24T08:06:26.721Z,5.50
2023-05-24T08:07:49.162Z,5.20
2023-05-24T08:09:12.505Z,5.28
2023-05-24T08:10:34.836Z,6.35
2023-05-24T08:11:57.255Z,5.15
2023-05-24T08:13:20.086Z,5.20
2023-05-24T08:14:42.378Z,4.93
2023-05-24T08:16:08.667Z,5.63
2023-05-24T08:17:33.030Z,5.55
2023-05-24T08:18:56.196Z,5.78
2023-05-24T08:20:20.428Z,6.07
2023-05-24T08:21:43.911Z,5.40
2023-05-24T08:23:06.372Z,5.45
2023-05-24T08:24:28.474Z,5.07
2023-05-24T08:27:52.577Z,5.85
2023-05-24T08:32:27.098Z,5.07
2023-05-24T08:33:51.777Z,5.72
2023-05-24T08:36:44.773Z,5.68
2023-05-24T08:38:07.667Z,4.85
2023-05-24T08:39:30.128Z,5.65
2023-05-24T08:40:52.701Z,5.20
2023-05-24T08:42:29.384Z,5.18
2023-05-24T08:43:52.933Z,5.88
2023-05-24T08:45:16.644Z,4.93
2023-05-24T08:46:57.580Z,5.15
2023-05-24T08:48:20.794Z,5.65
2023-05-24T08:49:43.538Z,4.68
2023-05-24T08:51:06.852Z,4.85
2023-05-24T08:52:34.442Z,5.13
2023-05-24T08:53:57.074Z,5.18
2023-05-24T08:55:19.363Z,5.40
2023-05-24T08:56:41.952Z,4.78
2023-05-24T08:58:05.474Z,4.25
2023-05-24T08:59:31.245Z,4.10
2023-05-24T09:00:53.480Z,3.95
2023-05-24T09:02:16.697Z,3.60
2023-05-24T09:03:39.860Z,4.05
2023-05-24T09:05:02.805Z,4.53
2023-05-24T09:06:26.681Z,4.50
2023-05-24T09:07:51.444Z,4.38
2023-05-24T09:09:14.679Z,4.30
2023-05-24T09:10:49.233Z,4.43
2023-05-24T09:12:35.415Z,4.45
2023-05-24T09:14:03.499Z,4.10
2023-05-24T09:15:26.435Z,4.32
2023-05-24T09:16:51.120Z,4.00
2023-05-24T09:18:19.552Z,4.22
2023-05-24T09:19:41.262Z,3.90
2023-05-24T09:21:03.547Z,4.32
2023-05-24T09:22:27.726Z,3.78
2023-05-24T09:23:54.045Z,4.30
2023-05-24T09:25:16.453Z,5.13
2023-05-24T09:26:38.655Z,4.75
2023-05-24T09:28:00.640Z,4.38
2023-05-24T09:29:27.296Z,4.80
2023-05-24T09:31:02.801Z,4.60
2023-05-24T09:32:26.996Z,3.80
2023-05-24T09:33:50.681Z,4.80
2023-05-24T09:35:15.468Z,4.25
2023-05-24T09:36:38.424Z,4.47
2023-05-24T09:38:00.484Z,4.15
2023-05-24T09:39:24.610Z,4.18
2023-05-24T09:40:46.967Z,4.72
2023-05-24T09:42:09.631Z,4.25
2023-05-24T09:43:33.084Z,4.45
2023-05-24T09:45:02.114Z,4.10
2023-05-24T09:46:24.180Z,4.90
2023-05-24T09:47:50.223Z,4.30
2023-05-24T09:49:31.404Z,4.70
2023-05-24T09:51:04.383Z,4.80
2023-05-24T09:52:26.581Z,4.68
2023-05-24T09:53:49.775Z,4.53
2023-05-24T09:55:17.815Z,4.15
2023-05-24T09:56:41.920Z,5.35
2023-05-24T09:58:05.520Z,5.57
2023-05-24T09:59:27.831Z,4.13
2023-05-24T10:00:50.069Z,5.07
2023-05-24T10:02:13.708Z,4.50
2023-05-24T10:03:35.896Z,4.10
2023-05-24T10:05:01.718Z,3.70
2023-05-24T10:06:24.321Z,4.60
2023-05-24T10:07:49.376Z,4.50
2023-05-24T10:09:14.237Z,4.57
2023-05-24T10:10:40.169Z,4.68
2023-05-24T10:12:06.448Z,4.57
2023-05-24T10:13:29.168Z,4.70
2023-05-24T10:14:53.497Z,4.18
2023-05-24T10:16:15.924Z,4.18
2023-05-24T10:17:37.163Z,4.72
2023-05-24T10:19:06.054Z,4.18
2023-05-24T10:20:28.548Z,4.05
2023-05-24T10:21:51.517Z,4.70
2023-05-24T10:23:19.855Z,4.72
2023-05-24T10:24:48.222Z,5.85
2023-05-24T10:26:14.021Z,4.85
2023-05-24T10:27:38.409Z,5.13
2023-05-24T10:29:08.290Z,4.50
2023-05-24T10:30:42.571Z,5.20
2023-05-24T10:32:09.556Z,4.72
2023-05-24T10:33:32.569Z,5.18
2023-05-24T10:34:54.903Z,4.38
2023-05-24T10:36:17.829Z,5.75
2023-05-24T10:37:40.379Z,5.28
2023-05-24T10:39:03.696Z,4.93
2023-05-24T10:40:28.396Z,5.30
2023-05-24T10:41:52.229Z,5.00
2023-05-24T10:43:18.152Z,4.60
2023-05-24T10:44:40.691Z,5.43
2023-05-24T10:46:05.123Z,6.20
2023-05-24T10:47:30.286Z,5.20
2023-05-24T10:49:01.282Z,5.22
2023-05-24T10:50:25.395Z,6.18
2023-05-24T10:51:47.378Z,5.22
2023-05-24T10:53:16.599Z,5.45
2023-05-24T10:54:44.732Z,5.45
2023-05-24T10:56:14.890Z,5.20
2023-05-24T10:57:40.068Z,4.95
2023-05-24T10:59:02.483Z,6.13
2023-05-24T11:00:35.676Z,5.65
2023-05-24T11:01:59.415Z,5.22
2023-05-24T11:03:24.886Z,5.30
2023-05-24T11:04:50.588Z,6.15
2023-05-24T11:06:14.927Z,5.97
2023-05-24T11:07:43.260Z,5.60
2023-05-24T11:09:06.287Z,5.13
2023-05-24T11:10:48.797Z,5.90
2023-05-24T11:12:22.095Z,5.05
2023-05-24T11:13:50.729Z,5.25
2023-05-24T11:15:13.494Z,5.35
2023-05-24T11:16:39.454Z,5.18
2023-05-24T11:18:18.332Z,4.50
2023-05-24T11:19:47.642Z,5.80
2023-05-24T11:21:10.526Z,6.78
2023-05-24T11:22:32.739Z,4.80
2023-05-24T11:23:55.230Z,4.60
2023-05-24T11:25:17.618Z,4.18
2023-05-24T11:26:39.282Z,4.28
2023-05-24T11:28:03.271Z,5.25
2023-05-24T11:29:30.246Z,5.25
2023-05-24T11:35:41.325Z,4.28
2023-05-24T11:37:06.298Z,3.85
2023-05-24T11:38:27.675Z,4.53
2023-05-24T11:39:53.294Z,4.68
2023-05-24T11:41:14.665Z,5.20
2023-05-24T11:42:37.754Z,5.18
2023-05-24T11:44:00.632Z,4.35
2023-05-24T11:45:24.611Z,5.03
2023-05-24T11:46:47.496Z,4.45
2023-05-24T11:48:10.011Z,4.63
2023-05-24T11:49:32.485Z,5.07
2023-05-24T11:50:55.243Z,5.10
2023-05-24T11:52:17.992Z,5.03
2023-05-24T11:53:40.578Z,5.47
2023-05-24T11:55:02.686Z,5.13
